createdAt,value
2022-08-14T00:01:37.867Z,21.42
2022-08-14T00:04:42.308Z,21.40
2022-08-14T00:07:49.339Z,21.44
2022-08-14T00:10:53.885Z,21.28
2022-08-14T00:13:58.000Z,21.26
2022-08-14T00:17:01.373Z,21.25
2022-08-14T00:20:08.188Z,21.19
2022-08-14T00:23:17.475Z,21.16
2022-08-14T00:26:21.929Z,21.13
2022-08-14T00:29:27.413Z,21.12
2022-08-14T00:32:52.767Z,21.08
2022-08-14T00:36:35.362Z,21.03
2022-08-14T00:39:17.975Z,21.02
2022-08-14T00:42:55.484Z,21.04
2022-08-14T00:45:52.641Z,21.03
2022-08-14T00:48:58.129Z,20.84
2022-08-14T00:52:01.003Z,20.93
2022-08-14T00:55:06.458Z,20.91
2022-08-14T00:58:32.800Z,20.91
2022-08-14T01:01:37.128Z,20.87
2022-08-14T01:04:54.392Z,20.91
2022-08-14T01:07:58.562Z,20.89
2022-08-14T01:11:01.490Z,20.73
2022-08-14T01:14:28.198Z,20.69
2022-08-14T01:17:50.735Z,20.78
2022-08-14T01:21:11.823Z,20.78
2022-08-14T01:24:30.481Z,20.68
2022-08-14T01:27:50.201Z,20.77
2022-08-14T01:30:59.396Z,20.81
2022-08-14T01:35:17.849Z,20.82
2022-08-14T01:37:28.903Z,20.78
2022-08-14T01:40:40.834Z,20.73
2022-08-14T01:43:56.038Z,20.70
2022-08-14T01:47:01.863Z,20.65
2022-08-14T01:50:10.195Z,20.74
2022-08-14T01:53:13.743Z,20.77
2022-08-14T01:56:18.845Z,20.79
2022-08-14T01:59:22.023Z,20.86
2022-08-14T02:02:25.856Z,20.77
2022-08-14T02:05:35.698Z,20.71
2022-08-14T02:08:52.643Z,20.84
2022-08-14T02:11:58.124Z,20.73
2022-08-14T02:15:01.567Z,20.84
2022-08-14T02:18:05.480Z,20.79
2022-08-14T02:21:12.563Z,20.84
2022-08-14T02:24:39.044Z,20.74
2022-08-14T02:28:22.426Z,20.63
2022-08-14T02:31:09.018Z,20.79
2022-08-14T02:34:26.021Z,20.70
2022-08-14T02:37:47.918Z,20.72
2022-08-14T02:40:51.344Z,20.82
2022-08-14T02:43:54.380Z,20.81
2022-08-14T02:47:03.958Z,20.78
2022-08-14T02:50:27.260Z,20.66
2022-08-14T02:53:31.135Z,20.73
2022-08-14T02:57:16.441Z,20.77
2022-08-14T03:00:02.148Z,20.78
2022-08-14T03:03:09.830Z,20.81
2022-08-14T03:06:13.755Z,20.80
2022-08-14T03:09:24.103Z,20.78
2022-08-14T03:12:31.330Z,20.72
2022-08-14T03:15:40.066Z,20.74
2022-08-14T03:18:45.968Z,20.74
2022-08-14T03:21:53.054Z,20.74
2022-08-14T03:24:56.007Z,20.64
2022-08-14T03:28:07.149Z,20.61
2022-08-14T03:31:13.306Z,20.67
2022-08-14T03:34:24.626Z,20.75
2022-08-14T03:39:10.905Z,20.71
2022-08-14T03:41:02.412Z,20.65
2022-08-14T03:45:18.684Z,20.55
2022-08-14T03:47:46.629Z,20.62
2022-08-14T03:50:53.131Z,20.46
2022-08-14T03:54:02.094Z,20.50
2022-08-14T03:57:05.384Z,20.49
2022-08-14T04:00:13.523Z,20.47
2022-08-14T04:03:24.040Z,20.54
2022-08-14T04:06:28.305Z,20.53
2022-08-14T04:09:35.091Z,20.59
2022-08-14T04:12:37.860Z,20.57
2022-08-14T04:16:01.086Z,20.50
2022-08-14T04:19:04.756Z,20.34
2022-08-14T04:22:07.846Z,20.54
2022-08-14T04:25:10.722Z,20.64
2022-08-14T04:29:08.189Z,20.69
2022-08-14T04:32:59.063Z,20.67
2022-08-14T04:35:07.451Z,20.64
2022-08-14T04:38:36.531Z,20.61
2022-08-14T04:42:00.226Z,20.59
2022-08-14T04:45:03.785Z,20.52
2022-08-14T04:48:12.913Z,20.49
2022-08-14T04:51:18.620Z,20.55
2022-08-14T04:54:22.043Z,20.55
2022-08-14T04:57:27.208Z,20.58
2022-08-14T05:00:33.362Z,20.63
2022-08-14T05:03:37.893Z,20.67
2022-08-14T05:06:40.905Z,20.71
2022-08-14T05:09:47.805Z,20.68
2022-08-14T05:13:12.867Z,20.68
2022-08-14T05:16:15.211Z,20.73
2022-08-14T05:19:27.373Z,20.72
2022-08-14T05:22:32.291Z,20.76
2022-08-14T05:25:38.205Z,20.73
2022-08-14T05:28:45.008Z,20.78
2022-08-14T05:31:47.977Z,20.80
2022-08-14T05:34:50.731Z,20.72
2022-08-14T05:37:54.990Z,20.83
2022-08-14T05:40:57.776Z,20.82
2022-08-14T05:44:01.068Z,20.82
2022-08-14T05:47:04.461Z,20.78
2022-08-14T05:50:18.839Z,20.91
2022-08-14T05:53:23.389Z,20.82
2022-08-14T05:56:26.556Z,20.86
2022-08-14T05:59:39.313Z,20.95
2022-08-14T06:02:43.249Z,20.92
2022-08-14T06:05:51.335Z,20.96
2022-08-14T06:08:54.697Z,20.88
2022-08-14T06:11:57.622Z,21.04
2022-08-14T06:15:00.654Z,21.16
2022-08-14T06:18:04.099Z,21.22
2022-08-14T06:21:13.534Z,21.27
2022-08-14T06:24:18.667Z,21.26
2022-08-14T06:27:21.832Z,21.38
2022-08-14T06:30:30.311Z,21.44
2022-08-14T06:35:09.624Z,21.54
2022-08-14T06:37:12.627Z,21.61
2022-08-14T06:40:26.891Z,21.75
2022-08-14T06:43:32.511Z,22.07
2022-08-14T06:46:37.093Z,22.13
2022-08-14T06:49:48.490Z,22.71
2022-08-14T06:53:00.459Z,22.66
2022-08-14T06:56:03.660Z,22.91
2022-08-14T06:59:06.722Z,22.52
2022-08-14T07:02:37.780Z,22.85
2022-08-14T07:05:57.852Z,23.10
2022-08-14T07:09:01.698Z,23.29
2022-08-14T07:12:04.784Z,23.59
2022-08-14T07:15:08.382Z,23.67
2022-08-14T07:18:14.158Z,23.61
2022-08-14T07:21:17.185Z,24.06
2022-08-14T07:24:21.808Z,23.60
2022-08-14T07:27:33.430Z,23.57
2022-08-14T07:30:41.935Z,24.01
2022-08-14T07:33:54.535Z,23.89
2022-08-14T07:37:01.140Z,24.18
2022-08-14T07:40:06.160Z,24.37
2022-08-14T07:43:14.862Z,23.78
2022-08-14T07:46:17.922Z,23.87
2022-08-14T07:49:32.567Z,23.72
2022-08-14T07:52:35.643Z,24.24
2022-08-14T07:55:38.668Z,24.27
2022-08-14T07:58:51.714Z,23.83
2022-08-14T08:01:57.403Z,24.35
2022-08-14T08:05:02.658Z,24.40
2022-08-14T08:08:08.260Z,24.63
2022-08-14T08:11:35.038Z,24.62
2022-08-14T08:14:55.490Z,24.26
2022-08-14T08:18:04.027Z,24.60
2022-08-14T08:21:08.485Z,24.60
2022-08-14T08:24:11.449Z,25.37
2022-08-14T08:27:21.285Z,25.20
2022-08-14T08:30:27.487Z,25.65
2022-08-14T08:33:37.324Z,25.86
2022-08-14T08:36:42.071Z,26.50
2022-08-14T08:40:02.377Z,26.03
2022-08-14T08:43:09.240Z,25.92
2022-08-14T08:46:21.090Z,25.42
2022-08-14T08:49:52.649Z,25.64
2022-08-14T08:53:07.780Z,25.58
2022-08-14T08:56:12.284Z,25.24
2022-08-14T08:59:34.355Z,25.86
2022-08-14T09:02:38.256Z,25.96
2022-08-14T09:05:54.414Z,25.78
2022-08-14T09:08:59.348Z,25.88
2022-08-14T09:12:03.325Z,26.24
2022-08-14T09:15:12.340Z,26.72
2022-08-14T09:18:18.981Z,27.34
2022-08-14T09:21:31.316Z,27.36
2022-08-14T09:24:44.132Z,27.54
2022-08-14T09:27:49.088Z,27.72
2022-08-14T09:30:57.731Z,27.98
2022-08-14T09:34:33.062Z,27.60
2022-08-14T09:38:06.848Z,28.41
2022-08-14T09:42:21.297Z,28.26
2022-08-14T09:45:24.758Z,27.89
2022-08-14T09:48:34.125Z,28.53
2022-08-14T09:51:51.507Z,28.67
2022-08-14T09:55:02.794Z,28.58
2022-08-14T09:58:14.886Z,28.46
2022-08-14T10:01:37.416Z,28.51
2022-08-14T10:04:43.999Z,28.84
2022-08-14T10:07:53.465Z,28.86
2022-08-14T10:11:02.722Z,28.92
2022-08-14T10:14:21.148Z,28.46
2022-08-14T10:17:38.912Z,28.95
2022-08-14T10:20:57.747Z,29.02
2022-08-14T10:24:00.776Z,28.69
2022-08-14T10:27:03.540Z,28.97
2022-08-14T10:30:22.512Z,28.80
2022-08-14T10:33:28.551Z,29.13
2022-08-14T10:36:41.041Z,28.39
2022-08-14T10:40:05.802Z,28.52
2022-08-14T10:43:22.917Z,29.17
2022-08-14T10:47:41.474Z,28.75
2022-08-14T10:50:00.964Z,28.99
2022-08-14T10:53:05.598Z,29.09
2022-08-14T10:56:21.650Z,28.66
2022-08-14T11:00:01.863Z,29.35
2022-08-14T11:03:09.922Z,29.57
2022-08-14T11:06:22.436Z,29.10
2022-08-14T11:09:31.394Z,28.90
2022-08-14T11:12:48.066Z,29.39
2022-08-14T11:15:52.570Z,29.48
2022-08-14T11:18:59.669Z,29.67
2022-08-14T11:22:03.923Z,29.83
2022-08-14T11:25:14.424Z,29.98
2022-08-14T11:28:47.893Z,30.44
2022-08-14T11:31:47.225Z,29.94
2022-08-14T11:34:54.969Z,30.43
2022-08-14T11:38:04.875Z,30.75
2022-08-14T11:41:09.533Z,29.45
2022-08-14T11:44:17.622Z,29.86
2022-08-14T11:48:10.535Z,29.90
2022-08-14T11:51:01.434Z,30.20
2022-08-14T11:54:08.429Z,30.04
2022-08-14T11:57:18.803Z,30.33
2022-08-14T12:00:31.969Z,30.59
2022-08-14T12:03:46.793Z,30.29
2022-08-14T12:06:58.437Z,30.53
2022-08-14T12:10:25.582Z,30.26
2022-08-14T12:13:29.123Z,30.47
2022-08-14T12:16:35.437Z,30.60
2022-08-14T12:19:51.460Z,31.18
2022-08-14T12:22:57.521Z,31.30
2022-08-14T12:26:39.428Z,30.88
2022-08-14T12:29:31.806Z,31.44
2022-08-14T12:32:41.996Z,31.05
2022-08-14T12:35:45.240Z,31.29
2022-08-14T12:38:54.249Z,31.32
2022-08-14T12:42:01.628Z,31.26
2022-08-14T12:45:05.435Z,31.51
2022-08-14T12:48:21.085Z,31.96
2022-08-14T12:51:31.384Z,31.93
2022-08-14T12:54:34.758Z,31.55
2022-08-14T12:57:53.405Z,31.33
2022-08-14T13:01:16.454Z,31.89
2022-08-14T13:04:22.786Z,32.21
2022-08-14T13:07:32.861Z,32.36
2022-08-14T13:10:47.202Z,32.70
2022-08-14T13:13:58.924Z,32.72
2022-08-14T13:17:03.199Z,32.44
2022-08-14T13:20:10.686Z,32.44
2022-08-14T13:23:31.680Z,31.95
2022-08-14T13:26:35.624Z,31.49
2022-08-14T13:29:46.503Z,31.63
2022-08-14T13:32:50.189Z,31.23
2022-08-14T13:35:54.239Z,30.88
2022-08-14T13:38:58.291Z,30.37
2022-08-14T13:42:10.907Z,30.49
2022-08-14T13:45:17.143Z,30.87
2022-08-14T13:48:32.283Z,31.34
2022-08-14T13:51:40.019Z,31.62
2022-08-14T13:54:55.313Z,31.98
2022-08-14T13:58:03.994Z,31.94
2022-08-14T14:01:07.894Z,31.88
2022-08-14T14:04:18.982Z,32.22
2022-08-14T14:07:24.114Z,32.12
2022-08-14T14:10:37.281Z,32.34
2022-08-14T14:13:45.367Z,32.33
2022-08-14T14:16:50.955Z,32.24
2022-08-14T14:19:53.842Z,32.01
2022-08-14T14:23:01.628Z,31.56
2022-08-14T14:26:08.086Z,32.34
2022-08-14T14:29:26.017Z,32.07
2022-08-14T14:32:32.152Z,32.12
2022-08-14T14:35:39.587Z,32.27
2022-08-14T14:38:45.114Z,32.29
2022-08-14T14:41:56.157Z,32.08
2022-08-14T14:45:14.278Z,31.51
2022-08-14T14:48:19.652Z,31.66
2022-08-14T14:51:22.501Z,31.57
2022-08-14T14:54:31.164Z,31.38
2022-08-14T14:57:36.342Z,31.47
2022-08-14T15:00:40.152Z,31.26
2022-08-14T15:03:45.617Z,31.27
2022-08-14T15:06:50.070Z,31.12
2022-08-14T15:09:55.349Z,30.88
2022-08-14T15:13:00.213Z,30.83
2022-08-14T15:16:09.059Z,30.77
2022-08-14T15:19:12.084Z,31.00
2022-08-14T15:22:17.428Z,31.17
2022-08-14T15:25:20.426Z,31.47
2022-08-14T15:28:25.079Z,31.65
2022-08-14T15:31:28.068Z,31.62
2022-08-14T15:34:45.886Z,31.88
2022-08-14T15:37:55.900Z,31.97
2022-08-14T15:41:08.493Z,32.31
2022-08-14T15:44:25.513Z,32.38
2022-08-14T15:47:31.438Z,32.57
2022-08-14T15:50:35.253Z,32.49
2022-08-14T15:53:38.091Z,32.22
2022-08-14T15:56:43.750Z,32.13
2022-08-14T16:00:05.566Z,32.06
2022-08-14T16:03:16.818Z,32.01
2022-08-14T16:06:23.037Z,31.97
2022-08-14T16:09:26.140Z,31.88
2022-08-14T16:12:41.857Z,31.78
2022-08-14T16:15:53.333Z,31.76
2022-08-14T16:18:59.674Z,31.87
2022-08-14T16:22:58.495Z,32.14
2022-08-14T16:25:34.669Z,32.07
2022-08-14T16:28:39.680Z,31.82
2022-08-14T16:31:43.909Z,31.45
2022-08-14T16:34:51.002Z,31.33
2022-08-14T16:37:59.011Z,31.30
2022-08-14T16:41:28.532Z,31.13
2022-08-14T16:44:39.157Z,31.00
2022-08-14T16:47:44.713Z,31.02
2022-08-14T16:50:51.091Z,30.73
2022-08-14T16:53:54.672Z,30.49
2022-08-14T16:57:13.397Z,30.32
2022-08-14T17:00:29.488Z,30.18
2022-08-14T17:03:52.541Z,30.14
2022-08-14T17:06:57.455Z,30.03
2022-08-14T17:10:09.288Z,29.75
2022-08-14T17:13:19.095Z,29.65
2022-08-14T17:16:24.692Z,29.54
2022-08-14T17:19:40.202Z,29.44
2022-08-14T17:22:48.617Z,29.31
2022-08-14T17:25:51.589Z,29.22
2022-08-14T17:29:15.169Z,29.07
2022-08-14T17:32:28.004Z,28.98
2022-08-14T17:39:06.605Z,28.68
2022-08-14T17:42:13.572Z,28.47
2022-08-14T17:45:27.060Z,28.44
2022-08-14T17:49:10.158Z,28.31
2022-08-14T17:52:07.867Z,28.11
2022-08-14T17:56:01.839Z,27.84
2022-08-14T17:58:44.845Z,27.59
2022-08-14T18:01:49.527Z,27.38
2022-08-14T18:04:56.388Z,27.29
2022-08-14T18:08:34.020Z,27.20
2022-08-14T18:11:23.985Z,27.09
2022-08-14T18:14:32.468Z,26.92
2022-08-14T18:17:54.267Z,26.70
2022-08-14T18:21:42.214Z,26.42
2022-08-14T18:24:29.753Z,26.41
2022-08-14T18:27:41.658Z,26.25
2022-08-14T18:30:58.746Z,26.07
2022-08-14T18:34:11.752Z,26.11
2022-08-14T18:37:20.690Z,26.00
2022-08-14T18:40:34.261Z,25.90
2022-08-14T18:43:59.023Z,25.82
2022-08-14T18:47:08.567Z,25.82
2022-08-14T18:50:26.045Z,25.84
2022-08-14T18:53:49.996Z,25.69
2022-08-14T18:57:01.324Z,25.49
2022-08-14T19:00:32.968Z,25.23
2022-08-14T19:03:37.241Z,25.14
2022-08-14T19:06:55.859Z,24.97
2022-08-14T19:10:03.413Z,24.91
2022-08-14T19:13:13.072Z,24.88
2022-08-14T19:16:33.694Z,24.86
2022-08-14T19:19:39.836Z,24.77
2022-08-14T19:22:47.379Z,24.64
2022-08-14T19:25:51.707Z,24.59
2022-08-14T19:28:55.432Z,24.49
2022-08-14T19:32:01.188Z,24.45
2022-08-14T19:35:49.009Z,24.33
2022-08-14T19:38:57.283Z,24.29
2022-08-14T19:42:00.803Z,24.17
2022-08-14T19:45:16.091Z,24.06
2022-08-14T19:48:21.728Z,23.94
2022-08-14T19:51:25.701Z,23.69
2022-08-14T19:54:36.920Z,23.61
2022-08-14T19:57:40.006Z,23.56
2022-08-14T20:00:56.410Z,23.52
2022-08-14T20:04:02.479Z,23.28
2022-08-14T20:07:08.842Z,23.41
2022-08-14T20:11:04.859Z,23.39
2022-08-14T20:14:11.584Z,23.32
2022-08-14T20:17:27.567Z,23.33
2022-08-14T20:20:32.893Z,23.31
2022-08-14T20:23:37.888Z,23.25
2022-08-14T20:26:46.879Z,23.24
2022-08-14T20:30:33.447Z,23.20
2022-08-14T20:33:48.088Z,23.15
2022-08-14T20:37:01.898Z,23.04
2022-08-14T20:40:23.312Z,22.97
2022-08-14T20:43:52.790Z,22.90
2022-08-14T20:47:01.141Z,22.95
2022-08-14T20:50:25.461Z,22.93
2022-08-14T20:53:35.591Z,22.99
2022-08-14T20:56:41.567Z,22.99
2022-08-14T20:59:52.991Z,22.88
2022-08-14T21:02:56.760Z,22.92
2022-08-14T21:06:16.962Z,22.81
2022-08-14T21:10:04.788Z,22.83
2022-08-14T21:13:26.215Z,22.75
2022-08-14T21:16:33.706Z,22.63
2022-08-14T21:19:38.646Z,22.76
2022-08-14T21:22:45.093Z,22.79
2022-08-14T21:25:50.712Z,22.92
2022-08-14T21:28:53.699Z,22.98
2022-08-14T21:31:56.747Z,22.98
2022-08-14T21:35:02.041Z,23.04
2022-08-14T21:38:17.910Z,23.08
2022-08-14T21:41:42.208Z,23.04
2022-08-14T21:44:50.870Z,23.04
2022-08-14T21:47:54.182Z,22.80
2022-08-14T21:51:54.640Z,23.01
2022-08-14T21:54:49.351Z,22.92
2022-08-14T21:58:52.517Z,22.95
2022-08-14T22:01:17.303Z,23.03
2022-08-14T22:04:32.890Z,22.89
2022-08-14T22:07:38.909Z,22.97
2022-08-14T22:10:47.067Z,22.99
2022-08-14T22:13:56.036Z,22.85
2022-08-14T22:17:02.051Z,22.85
2022-08-14T22:20:16.647Z,22.91
2022-08-14T22:23:20.129Z,22.85
2022-08-14T22:26:23.294Z,22.87
2022-08-14T22:29:35.363Z,22.84
2022-08-14T22:32:57.522Z,22.85
2022-08-14T22:36:25.625Z,22.87
2022-08-14T22:40:16.774Z,22.81
2022-08-14T22:42:59.968Z,22.76
2022-08-14T22:46:15.080Z,22.59
2022-08-14T22:50:31.938Z,22.64
2022-08-14T22:52:49.575Z,22.61
2022-08-14T22:55:53.069Z,22.51
2022-08-14T22:58:57.908Z,22.55
2022-08-14T23:02:06.793Z,22.44
2022-08-14T23:05:15.479Z,22.44
2022-08-14T23:08:59.256Z,22.40
2022-08-14T23:11:43.593Z,22.38
2022-08-14T23:14:47.008Z,22.40
2022-08-14T23:17:49.996Z,22.16
2022-08-14T23:20:55.295Z,22.27
2022-08-14T23:23:58.546Z,22.18
2022-08-14T23:27:02.871Z,22.27
2022-08-14T23:30:31.378Z,22.20
2022-08-14T23:33:42.074Z,22.17
2022-08-14T23:36:57.732Z,22.07
2022-08-14T23:40:02.081Z,21.94
2022-08-14T23:43:14.551Z,21.83
2022-08-14T23:46:20.335Z,21.73
2022-08-14T23:49:22.972Z,21.59
2022-08-14T23:52:50.351Z,21.51
2022-08-14T23:55:54.548Z,21.37
2022-08-14T23:59:01.937Z,21.28
